createdAt,value
2018-05-14T00:00:18.395Z,5.77
2018-05-14T00:02:21.728Z,5.50
2018-05-14T00:04:24.271Z,5.70
2018-05-14T00:06:26.834Z,5.63
2018-05-14T00:08:30.144Z,5.40
2018-05-14T00:10:32.709Z,5.57
2018-05-14T00:12:35.278Z,5.63
2018-05-14T00:14:37.853Z,6.50
2018-05-14T00:16:40.396Z,5.80
2018-05-14T00:18:42.948Z,6.37
2018-05-14T00:20:45.484Z,7.60
2018-05-14T00:22:48.044Z,7.57
2018-05-14T00:24:51.370Z,6.93
2018-05-14T00:26:53.903Z,8.07
2018-05-14T00:28:56.456Z,7.90
2018-05-14T00:30:59.772Z,9.20
2018-05-14T00:33:02.349Z,8.50
2018-05-14T00:35:04.943Z,8.63
2018-05-14T00:37:07.488Z,8.03
2018-05-14T00:39:10.812Z,8.10
2018-05-14T00:41:13.476Z,8.27
2018-05-14T00:43:16.039Z,8.30
2018-05-14T00:45:18.612Z,8.00
2018-05-14T00:47:21.939Z,7.97
2018-05-14T00:49:24.522Z,8.00
2018-05-14T00:51:27.029Z,7.47
2018-05-14T00:53:30.348Z,8.43
2018-05-14T00:55:32.899Z,8.60
2018-05-14T00:57:36.284Z,8.13
2018-05-14T00:59:39.611Z,8.47
2018-05-14T01:01:42.153Z,9.13
2018-05-14T01:03:45.486Z,8.63
2018-05-14T01:05:48.032Z,8.83
2018-05-14T01:07:50.606Z,10.43
2018-05-14T01:09:53.183Z,10.60
2018-05-14T01:11:55.728Z,10.43
2018-05-14T01:13:59.067Z,10.70
2018-05-14T01:16:01.641Z,10.63
2018-05-14T01:18:04.209Z,11.33
2018-05-14T01:20:06.763Z,10.17
2018-05-14T01:22:09.343Z,10.10
2018-05-14T01:24:11.924Z,11.93
2018-05-14T01:26:14.487Z,11.20
2018-05-14T01:28:17.122Z,10.93
2018-05-14T01:30:19.667Z,11.03
2018-05-14T01:32:22.219Z,11.20
2018-05-14T01:34:24.787Z,11.60
2018-05-14T01:36:27.340Z,11.77
2018-05-14T01:38:30.676Z,10.83
2018-05-14T01:40:33.237Z,11.03
2018-05-14T01:42:35.775Z,11.60
2018-05-14T01:44:39.111Z,10.10
2018-05-14T01:46:41.655Z,11.30
2018-05-14T01:48:44.217Z,11.33
2018-05-14T01:50:47.536Z,11.63
2018-05-14T01:52:50.085Z,10.70
2018-05-14T01:54:52.668Z,9.80
2018-05-14T01:56:55.211Z,10.37
2018-05-14T01:58:58.548Z,10.30
2018-05-14T02:01:01.104Z,10.70
2018-05-14T02:03:03.649Z,10.87
2018-05-14T02:05:06.975Z,10.97
2018-05-14T02:07:09.522Z,10.27
2018-05-14T02:09:12.868Z,9.77
2018-05-14T02:11:15.431Z,10.37
2018-05-14T02:13:17.971Z,10.67
2018-05-14T02:15:20.576Z,10.63
2018-05-14T02:17:23.139Z,10.77
2018-05-14T02:19:25.716Z,11.23
2018-05-14T02:21:28.300Z,11.17
2018-05-14T02:23:30.884Z,11.63
2018-05-14T02:25:33.440Z,9.77
2018-05-14T02:27:35.983Z,10.43
2018-05-14T02:29:38.556Z,10.23
2018-05-14T02:31:41.100Z,10.53
2018-05-14T02:33:43.646Z,10.23
2018-05-14T02:35:46.213Z,11.07
2018-05-14T02:37:48.767Z,9.90
2018-05-14T02:39:51.372Z,9.97
2018-05-14T02:41:53.932Z,9.37
2018-05-14T02:43:56.498Z,11.17
2018-05-14T02:45:59.099Z,10.73
2018-05-14T02:48:01.649Z,10.40
2018-05-14T02:50:04.221Z,10.30
2018-05-14T02:52:06.803Z,10.17
2018-05-14T02:54:09.367Z,9.30
2018-05-14T02:56:11.918Z,8.77
2018-05-14T02:58:14.467Z,9.23
2018-05-14T03:00:17.803Z,9.27
2018-05-14T03:02:20.359Z,9.80
2018-05-14T03:04:22.935Z,10.13
2018-05-14T03:06:25.493Z,9.40
2018-05-14T03:08:28.801Z,9.33
2018-05-14T03:10:31.380Z,10.43
2018-05-14T03:12:33.923Z,10.13
2018-05-14T03:14:37.344Z,9.00
2018-05-14T03:16:39.891Z,9.40
2018-05-14T03:18:43.268Z,10.57
2018-05-14T03:20:45.832Z,10.10
2018-05-14T03:22:48.379Z,8.53
2018-05-14T03:24:51.045Z,9.03
2018-05-14T03:26:53.593Z,9.60
2018-05-14T03:28:56.134Z,9.53
2018-05-14T03:30:58.739Z,9.50
2018-05-14T03:33:01.282Z,10.70
2018-05-14T03:35:03.844Z,10.23
2018-05-14T03:37:06.392Z,9.10
2018-05-14T03:39:09.770Z,9.00
2018-05-14T03:41:12.333Z,9.93
2018-05-14T03:43:14.885Z,11.03
2018-05-14T03:45:18.219Z,10.27
2018-05-14T03:47:20.775Z,9.93
2018-05-14T03:49:23.309Z,10.87
2018-05-14T03:51:25.867Z,9.80
2018-05-14T03:53:28.408Z,10.63
2018-05-14T03:55:30.977Z,11.13
2018-05-14T03:57:33.533Z,10.67
2018-05-14T03:59:47.765Z,11.00
2018-05-14T04:02:14.806Z,10.87
2018-05-14T04:04:29.312Z,10.27
2018-05-14T04:06:38.894Z,9.13
2018-05-14T04:08:42.251Z,11.17
2018-05-14T04:10:44.847Z,10.37
2018-05-14T04:12:48.258Z,11.23
2018-05-14T04:14:51.611Z,10.33
2018-05-14T04:16:54.175Z,9.80
2018-05-14T04:18:56.735Z,10.60
2018-05-14T04:20:59.303Z,10.10
2018-05-14T04:23:01.848Z,10.20
2018-05-14T04:25:05.159Z,9.43
2018-05-14T04:27:07.734Z,9.47
2018-05-14T04:29:10.304Z,9.90
2018-05-14T04:31:12.867Z,9.47
2018-05-14T04:33:15.402Z,9.17
2018-05-14T04:35:18.029Z,10.33
2018-05-14T04:37:20.595Z,9.07
2018-05-14T04:39:23.151Z,9.40
2018-05-14T04:41:26.720Z,9.53
2018-05-14T04:43:29.262Z,9.17
2018-05-14T04:45:31.831Z,9.00
2018-05-14T04:47:34.389Z,8.90
2018-05-14T04:49:37.817Z,9.00
2018-05-14T04:51:41.166Z,8.77
2018-05-14T04:53:43.712Z,9.40
2018-05-14T04:55:46.269Z,8.57
2018-05-14T04:57:48.815Z,9.07
2018-05-14T04:59:51.355Z,8.70
2018-05-14T05:01:53.928Z,8.03
2018-05-14T05:03:56.467Z,7.53
2018-05-14T05:05:59.011Z,8.17
2018-05-14T05:08:01.560Z,8.73
2018-05-14T05:10:04.220Z,8.83
2018-05-14T05:12:07.560Z,8.60
2018-05-14T05:14:10.972Z,8.97
2018-05-14T05:16:13.540Z,9.70
2018-05-14T05:18:16.088Z,8.63
2018-05-14T05:20:18.634Z,8.77
2018-05-14T05:22:21.192Z,9.10
2018-05-14T05:24:24.496Z,9.20
2018-05-14T05:26:27.071Z,8.87
2018-05-14T05:28:29.657Z,8.80
2018-05-14T05:30:32.992Z,9.67
2018-05-14T05:32:35.564Z,9.00
2018-05-14T05:34:38.111Z,8.80
2018-05-14T05:36:40.659Z,8.87
2018-05-14T05:38:43.220Z,8.03
2018-05-14T05:40:46.530Z,8.67
2018-05-14T05:42:49.101Z,8.67
2018-05-14T05:44:51.643Z,8.87
2018-05-14T05:46:54.975Z,8.37
2018-05-14T05:48:57.505Z,8.13
2018-05-14T05:51:00.863Z,8.43
2018-05-14T05:53:03.415Z,7.80
2018-05-14T05:55:05.968Z,8.37
2018-05-14T05:57:08.584Z,8.63
2018-05-14T05:59:11.123Z,7.90
2018-05-14T06:01:13.760Z,8.50
2018-05-14T06:03:16.247Z,8.33
2018-05-14T06:05:19.588Z,8.73
2018-05-14T06:07:22.154Z,8.67
2018-05-14T06:09:24.706Z,9.00
2018-05-14T06:11:27.236Z,9.87
2018-05-14T06:13:29.816Z,8.93
2018-05-14T06:15:32.408Z,8.13
2018-05-14T06:17:34.915Z,8.90
2018-05-14T06:19:37.451Z,8.43
2018-05-14T06:21:40.770Z,8.47
2018-05-14T06:23:43.351Z,8.30
2018-05-14T06:25:45.900Z,8.20
2018-05-14T06:27:48.478Z,8.10
2018-05-14T06:29:51.808Z,8.27
2018-05-14T06:31:54.355Z,9.17
2018-05-14T06:33:56.923Z,8.63
2018-05-14T06:35:59.518Z,7.90
2018-05-14T06:38:02.075Z,9.37
2018-05-14T06:40:04.607Z,9.17
2018-05-14T06:42:07.963Z,9.17
2018-05-14T06:44:10.511Z,10.23
2018-05-14T06:46:13.059Z,8.73
2018-05-14T06:48:16.387Z,9.43
2018-05-14T06:50:18.937Z,9.70
2018-05-14T06:52:21.515Z,10.13
2018-05-14T06:54:24.067Z,9.60
2018-05-14T06:56:27.461Z,9.13
2018-05-14T06:58:30.789Z,9.67
2018-05-14T07:00:33.339Z,10.43
2018-05-14T07:02:35.920Z,9.83
2018-05-14T07:04:38.487Z,10.43
2018-05-14T07:06:41.033Z,9.37
2018-05-14T07:08:44.411Z,10.03
2018-05-14T07:10:46.983Z,9.63
2018-05-14T07:12:49.572Z,10.83
2018-05-14T07:14:52.896Z,9.90
2018-05-14T07:16:55.464Z,10.00
2018-05-14T07:18:58.004Z,9.10
2018-05-14T07:21:00.573Z,9.23
2018-05-14T07:23:03.119Z,9.07
2018-05-14T07:25:05.697Z,9.17
2018-05-14T07:27:08.315Z,9.30
2018-05-14T07:29:11.623Z,8.90
2018-05-14T07:31:14.212Z,9.53
2018-05-14T07:33:16.759Z,9.17
2018-05-14T07:35:20.223Z,9.97
2018-05-14T07:37:22.636Z,9.10
2018-05-14T07:39:25.200Z,9.60
2018-05-14T07:41:27.782Z,10.80
2018-05-14T07:43:30.368Z,10.03
2018-05-14T07:45:32.925Z,9.03
2018-05-14T07:47:35.463Z,9.50
2018-05-14T07:49:38.027Z,10.13
2018-05-14T07:51:40.602Z,9.50
2018-05-14T07:53:43.169Z,9.27
2018-05-14T07:55:45.716Z,9.83
2018-05-14T07:57:48.288Z,9.77
2018-05-14T07:59:50.859Z,10.03
2018-05-14T08:01:53.405Z,10.53
2018-05-14T08:03:56.744Z,10.43
2018-05-14T08:05:59.291Z,11.47
2018-05-14T08:08:01.871Z,11.63
2018-05-14T08:10:04.407Z,10.97
2018-05-14T08:12:07.720Z,12.47
2018-05-14T08:14:10.301Z,11.87
2018-05-14T08:16:12.888Z,11.33
2018-05-14T08:18:15.439Z,12.60
2018-05-14T08:20:18.018Z,12.00
2018-05-14T08:22:20.550Z,12.67
2018-05-14T08:24:23.129Z,13.40
2018-05-14T08:26:26.452Z,11.80
2018-05-14T08:28:29.020Z,12.83
2018-05-14T08:30:31.568Z,12.90
2018-05-14T08:32:34.116Z,12.90
2018-05-14T08:34:36.683Z,12.80
2018-05-14T08:36:39.243Z,12.63
2018-05-14T08:38:41.821Z,13.30
2018-05-14T08:40:44.385Z,13.33
2018-05-14T08:42:46.944Z,14.67
2018-05-14T08:44:49.523Z,15.17
2018-05-14T08:46:52.127Z,14.73
2018-05-14T08:48:54.699Z,14.07
2018-05-14T08:50:57.396Z,13.97
2018-05-14T08:52:59.944Z,14.90
2018-05-14T08:55:02.517Z,15.23
2018-05-14T08:57:05.060Z,14.50
2018-05-14T08:59:07.651Z,15.20
2018-05-14T09:01:10.171Z,15.83
2018-05-14T09:03:13.495Z,15.63
2018-05-14T09:05:16.901Z,15.00
2018-05-14T09:07:19.436Z,17.17
2018-05-14T09:09:22.777Z,17.37
2018-05-14T09:11:25.319Z,17.03
2018-05-14T09:13:27.908Z,18.73
2018-05-14T09:15:30.487Z,17.90
2018-05-14T09:17:33.033Z,18.07
2018-05-14T09:19:36.411Z,17.23
2018-05-14T09:21:38.931Z,17.73
2018-05-14T09:23:42.247Z,17.27
2018-05-14T09:25:44.812Z,18.37
2018-05-14T09:27:47.436Z,18.47
2018-05-14T09:29:50.767Z,18.63
2018-05-14T09:31:53.316Z,18.57
2018-05-14T09:33:55.911Z,18.20
2018-05-14T09:35:58.480Z,19.07
2018-05-14T09:38:01.031Z,18.87
2018-05-14T09:40:03.592Z,18.47
2018-05-14T09:42:06.151Z,18.87
2018-05-14T09:44:09.535Z,18.10
2018-05-14T09:46:12.250Z,18.00
2018-05-14T09:48:14.727Z,18.73
2018-05-14T09:50:17.308Z,18.07
2018-05-14T09:52:19.848Z,19.03
2018-05-14T09:54:23.183Z,19.73
2018-05-14T09:56:25.757Z,19.43
2018-05-14T09:58:28.297Z,18.93
2018-05-14T10:00:30.908Z,20.23
2018-05-14T10:02:34.230Z,19.63
2018-05-14T10:04:36.773Z,19.70
2018-05-14T10:06:39.328Z,18.70
2018-05-14T10:08:41.881Z,19.90
2018-05-14T10:10:45.340Z,20.70
2018-05-14T10:12:48.657Z,18.27
2018-05-14T10:14:51.991Z,20.20
2018-05-14T10:16:54.565Z,19.87
2018-05-14T10:18:57.112Z,19.67
2018-05-14T10:20:59.679Z,21.27
2018-05-14T10:23:02.244Z,20.20
2018-05-14T10:25:05.577Z,25.70
2018-05-14T10:27:08.140Z,21.03
2018-05-14T10:29:10.680Z,18.73
2018-05-14T10:31:14.018Z,18.73
2018-05-14T10:33:16.596Z,18.37
2018-05-14T10:35:19.186Z,18.10
2018-05-14T10:37:21.724Z,18.87
2018-05-14T10:39:24.288Z,18.63
2018-05-14T10:41:26.863Z,19.03
2018-05-14T10:43:29.451Z,19.40
2018-05-14T10:45:32.038Z,19.80
2018-05-14T10:47:34.567Z,19.87
2018-05-14T10:49:37.887Z,20.87
2018-05-14T10:51:40.445Z,18.20
2018-05-14T10:53:43.019Z,19.13
2018-05-14T10:55:45.588Z,19.87
2018-05-14T10:57:48.145Z,18.87
2018-05-14T10:59:51.467Z,18.67
2018-05-14T11:01:54.043Z,18.37
2018-05-14T11:03:56.654Z,19.17
2018-05-14T11:05:59.160Z,19.30
2018-05-14T11:08:01.734Z,20.27
2018-05-14T11:10:05.070Z,19.23
2018-05-14T11:12:07.723Z,19.07
2018-05-14T11:14:10.281Z,20.10
2018-05-14T11:16:12.850Z,19.63
2018-05-14T11:18:15.413Z,19.50
2018-05-14T11:20:18.717Z,19.40
2018-05-14T11:22:21.424Z,19.60
2018-05-14T11:24:24.072Z,20.50
2018-05-14T11:26:26.576Z,19.30
2018-05-14T11:28:29.145Z,19.00
2018-05-14T11:30:31.688Z,19.37
2018-05-14T11:32:34.248Z,20.90
2018-05-14T11:34:37.567Z,19.30
2018-05-14T11:36:40.139Z,20.17
2018-05-14T11:38:42.688Z,19.53
2018-05-14T11:40:45.296Z,19.87
2018-05-14T11:42:47.874Z,19.77
2018-05-14T11:44:50.438Z,19.90
2018-05-14T11:46:53.153Z,20.10
2018-05-14T11:48:55.788Z,21.20
2018-05-14T11:50:58.344Z,20.87
2018-05-14T11:53:00.923Z,19.30
2018-05-14T11:55:03.451Z,19.83
2018-05-14T11:57:06.014Z,20.97
2018-05-14T11:59:08.577Z,19.50
2018-05-14T12:01:11.113Z,19.13
2018-05-14T12:03:13.736Z,18.67
2018-05-14T12:05:16.253Z,19.63
2018-05-14T12:07:18.889Z,18.37
2018-05-14T12:09:21.439Z,17.87
2018-05-14T12:11:23.985Z,19.63
2018-05-14T12:13:26.595Z,19.30
2018-05-14T12:15:29.147Z,21.10
2018-05-14T12:17:31.710Z,20.33
2018-05-14T12:19:34.271Z,19.70
2018-05-14T12:21:36.845Z,19.87
2018-05-14T12:23:40.259Z,19.07
2018-05-14T12:25:42.840Z,19.80
2018-05-14T12:27:46.146Z,21.53
2018-05-14T12:29:49.463Z,21.43
2018-05-14T12:31:52.065Z,22.10
2018-05-14T12:33:55.368Z,20.67
2018-05-14T12:35:57.915Z,21.80
2018-05-14T12:38:01.331Z,21.03
2018-05-14T12:40:03.904Z,20.20
2018-05-14T12:42:06.472Z,21.07
2018-05-14T12:44:09.030Z,21.30
2018-05-14T12:46:12.392Z,23.10
2018-05-14T12:48:14.969Z,23.43
2018-05-14T12:50:17.520Z,22.63
2018-05-14T12:52:20.084Z,22.60
2018-05-14T12:54:22.667Z,23.50
2018-05-14T12:56:25.219Z,21.87
2018-05-14T12:58:27.781Z,23.73
2018-05-14T13:00:30.383Z,24.67
2018-05-14T13:02:32.974Z,23.90
2018-05-14T13:04:35.519Z,23.00
2018-05-14T13:06:38.081Z,23.47
2018-05-14T13:08:40.656Z,22.97
2018-05-14T13:10:43.207Z,22.57
2018-05-14T13:12:46.575Z,23.80
2018-05-14T13:14:49.139Z,24.40
2018-05-14T13:16:51.692Z,24.60
2018-05-14T13:18:54.371Z,22.00
2018-05-14T13:20:57.683Z,22.87
2018-05-14T13:23:00.256Z,24.83
2018-05-14T13:25:02.811Z,23.63
2018-05-14T13:27:05.368Z,23.07
2018-05-14T13:29:07.936Z,19.70
2018-05-14T13:31:10.491Z,19.27
2018-05-14T13:33:13.060Z,18.77
2018-05-14T13:35:15.620Z,20.93
2018-05-14T13:37:18.937Z,21.60
2018-05-14T13:39:21.514Z,21.30
2018-05-14T13:41:24.111Z,22.37
2018-05-14T13:43:26.666Z,22.43
2018-05-14T13:45:29.239Z,23.23
2018-05-14T13:47:31.812Z,22.93
2018-05-14T13:49:34.405Z,21.90
2018-05-14T13:51:36.959Z,19.90
2018-05-14T13:53:39.562Z,19.40
2018-05-14T13:55:42.120Z,18.93
2018-05-14T13:57:44.684Z,19.53
2018-05-14T13:59:47.259Z,18.70
2018-05-14T14:01:49.805Z,19.10
2018-05-14T14:03:52.378Z,19.03
2018-05-14T14:05:55.693Z,17.60
2018-05-14T14:07:58.243Z,18.10
2018-05-14T14:10:00.813Z,18.67
2018-05-14T14:12:04.161Z,19.10
2018-05-14T14:14:06.769Z,22.97
2018-05-14T14:16:09.311Z,25.63
2018-05-14T14:18:11.889Z,25.67
2018-05-14T14:20:14.463Z,25.80
2018-05-14T14:22:17.028Z,24.97
2018-05-14T14:24:19.757Z,27.63
2018-05-14T14:26:22.162Z,25.87
2018-05-14T14:28:24.753Z,27.30
2018-05-14T14:30:27.348Z,27.77
2018-05-14T14:32:29.903Z,28.13
2018-05-14T14:34:32.483Z,30.27
2018-05-14T14:36:35.126Z,28.13
2018-05-14T14:38:37.668Z,27.60
2018-05-14T14:40:41.012Z,31.23
2018-05-14T14:42:43.639Z,34.97
2018-05-14T14:44:46.231Z,35.33
2018-05-14T14:46:48.839Z,34.93
2018-05-14T14:48:51.599Z,33.63
2018-05-14T14:50:54.165Z,31.47
2018-05-14T14:52:56.728Z,29.57
2018-05-14T14:54:59.297Z,28.57
2018-05-14T14:57:01.856Z,26.73
2018-05-14T14:59:04.395Z,24.17
2018-05-14T15:01:06.983Z,23.27
2018-05-14T15:03:10.324Z,24.70
2018-05-14T15:05:12.900Z,22.57
2018-05-14T15:07:15.446Z,21.50
2018-05-14T15:09:18.017Z,22.60
2018-05-14T15:11:21.471Z,20.60
2018-05-14T15:13:24.023Z,20.83
2018-05-14T15:15:26.603Z,21.23
2018-05-14T15:17:29.162Z,20.73
2018-05-14T15:19:31.716Z,19.73
2018-05-14T15:21:34.280Z,20.07
2018-05-14T15:23:36.830Z,18.47
2018-05-14T15:25:40.167Z,18.43
2018-05-14T15:27:42.729Z,16.67
2018-05-14T15:29:45.408Z,15.73
2018-05-14T15:31:47.888Z,16.13
2018-05-14T15:33:50.435Z,14.17
2018-05-14T15:35:53.004Z,14.50
2018-05-14T15:37:55.571Z,14.70
2018-05-14T15:39:58.963Z,14.57
2018-05-14T15:42:02.297Z,15.13
2018-05-14T15:44:04.855Z,14.00
2018-05-14T15:46:07.424Z,16.20
2018-05-14T15:48:10.038Z,16.27
2018-05-14T15:50:12.635Z,16.50
2018-05-14T15:52:15.186Z,16.00
2018-05-14T15:54:17.744Z,16.57
2018-05-14T15:56:20.329Z,17.37
2018-05-14T15:58:22.872Z,17.73
2018-05-14T16:00:25.462Z,17.67
2018-05-14T16:02:28.010Z,19.53
2018-05-14T16:04:31.341Z,17.67
2018-05-14T16:06:33.911Z,23.17
2018-05-14T16:08:36.490Z,19.83
2018-05-14T16:10:39.062Z,18.90
2018-05-14T16:12:41.615Z,18.40
2018-05-14T16:14:44.946Z,18.30
2018-05-14T16:16:47.517Z,19.67
2018-05-14T16:18:50.063Z,20.63
2018-05-14T16:20:52.651Z,20.80
2018-05-14T16:22:55.200Z,21.10
2018-05-14T16:24:57.758Z,21.30
2018-05-14T16:27:00.470Z,21.93
2018-05-14T16:29:03.029Z,22.60
2018-05-14T16:31:05.593Z,22.37
2018-05-14T16:33:08.231Z,23.43
2018-05-14T16:35:11.573Z,23.60
2018-05-14T16:37:14.303Z,22.70
2018-05-14T16:39:17.632Z,22.17
2018-05-14T16:41:20.216Z,20.90
2018-05-14T16:43:22.763Z,20.83
2018-05-14T16:45:25.331Z,20.43
2018-05-14T16:47:27.892Z,19.87
2018-05-14T16:49:31.211Z,20.73
2018-05-14T16:51:33.799Z,20.07
2018-05-14T16:53:36.351Z,20.30
2018-05-14T16:55:38.907Z,19.70
2018-05-14T16:57:41.498Z,19.57
2018-05-14T16:59:44.808Z,18.77
2018-05-14T17:01:47.398Z,20.07
2018-05-14T17:03:49.940Z,19.67
2018-05-14T17:05:55.591Z,20.70
2018-05-14T17:07:58.156Z,20.03
2018-05-14T17:10:00.697Z,20.80
2018-05-14T17:12:04.062Z,20.00
2018-05-14T17:14:07.406Z,20.97
2018-05-14T17:16:10.015Z,21.73
2018-05-14T17:18:12.578Z,21.03
2018-05-14T17:20:15.128Z,21.73
2018-05-14T17:22:17.697Z,21.83
2018-05-14T17:24:20.318Z,21.83
2018-05-14T17:26:22.917Z,21.57
2018-05-14T17:28:26.248Z,22.30
2018-05-14T17:30:28.811Z,22.27
2018-05-14T17:32:31.448Z,23.10
2018-05-14T17:34:34.027Z,21.57
2018-05-14T17:36:36.714Z,22.57
2018-05-14T17:38:40.032Z,22.80
2018-05-14T17:40:42.598Z,23.87
2018-05-14T17:42:45.177Z,23.63
2018-05-14T17:44:47.851Z,23.73
2018-05-14T17:46:50.475Z,24.30
2018-05-14T17:48:53.052Z,24.33
2018-05-14T17:50:55.608Z,23.30
2018-05-14T17:52:58.305Z,24.07
2018-05-14T17:55:00.783Z,24.73
2018-05-14T17:57:03.360Z,24.97
2018-05-14T17:59:05.928Z,25.03
2018-05-14T18:01:08.537Z,25.53
2018-05-14T18:03:11.112Z,25.93
2018-05-14T18:05:13.759Z,27.30
2018-05-14T18:07:16.343Z,27.00
2018-05-14T18:09:19.671Z,26.23
2018-05-14T18:11:22.197Z,28.07
2018-05-14T18:13:24.792Z,27.53
2018-05-14T18:15:28.117Z,28.70
2018-05-14T18:17:30.781Z,28.47
2018-05-14T18:19:39.687Z,30.37
2018-05-14T18:21:45.190Z,29.37
2018-05-14T18:23:47.777Z,29.23
2018-05-14T18:28:39.485Z,29.10
2018-05-14T18:30:42.072Z,29.73
2018-05-14T18:32:50.304Z,28.97
2018-05-14T18:34:59.188Z,30.47
2018-05-14T18:37:01.922Z,29.60
2018-05-14T18:39:05.442Z,29.50
2018-05-14T18:41:07.916Z,30.77
2018-05-14T18:43:10.504Z,28.93
2018-05-14T18:45:13.832Z,30.50
2018-05-14T18:47:17.278Z,29.13
2018-05-14T18:49:24.744Z,29.17
2018-05-14T18:51:27.311Z,28.10
2018-05-14T18:53:29.889Z,29.57
2018-05-14T18:55:32.463Z,30.07
2018-05-14T18:57:35.039Z,29.87
2018-05-14T18:59:37.704Z,30.90
2018-05-14T19:01:40.278Z,27.80
2018-05-14T19:03:42.849Z,30.63
2018-05-14T19:05:45.444Z,31.60
2018-05-14T19:07:48.016Z,31.10
2018-05-14T19:09:50.737Z,32.70
2018-05-14T19:11:53.295Z,32.37
2018-05-14T19:13:56.657Z,32.10
2018-05-14T19:16:05.535Z,31.33
2018-05-14T19:18:08.119Z,33.07
2018-05-14T19:20:11.438Z,30.67
2018-05-14T19:22:19.640Z,31.17
2018-05-14T19:26:24.030Z,31.93
2018-05-14T19:28:32.089Z,32.80
2018-05-14T19:30:34.681Z,34.10
2018-05-14T19:32:37.243Z,31.30
2018-05-14T19:34:45.480Z,31.43
2018-05-14T19:36:48.113Z,32.30
2018-05-14T19:38:50.720Z,30.47
2018-05-14T19:40:54.035Z,31.90
2018-05-14T19:42:57.385Z,30.47
2018-05-14T19:44:59.999Z,32.30
2018-05-14T19:47:03.338Z,31.80
2018-05-14T19:49:05.920Z,29.43
2018-05-14T19:51:08.496Z,31.07
2018-05-14T19:53:11.056Z,29.60
2018-05-14T19:55:13.764Z,32.73
2018-05-14T19:57:16.317Z,32.33
2018-05-14T19:59:18.920Z,33.23
2018-05-14T20:01:21.519Z,34.27
2018-05-14T20:03:24.907Z,33.70
2018-05-14T20:05:27.444Z,31.90
2018-05-14T20:07:30.020Z,33.07
2018-05-14T20:09:32.631Z,36.27
2018-05-14T20:11:35.952Z,39.53
2018-05-14T20:13:38.539Z,41.03
2018-05-14T20:15:41.766Z,39.07
2018-05-14T20:17:44.439Z,40.13
2018-05-14T20:19:47.025Z,37.90
2018-05-14T20:21:49.576Z,36.37
2018-05-14T20:23:52.175Z,37.13
2018-05-14T20:25:55.512Z,34.93
2018-05-14T20:27:58.084Z,37.50
2018-05-14T20:30:00.664Z,36.93
2018-05-14T20:32:03.213Z,37.30
2018-05-14T20:34:05.896Z,37.87
2018-05-14T20:36:08.451Z,38.47
2018-05-14T20:38:11.853Z,41.00
2018-05-14T20:40:14.434Z,38.60
2018-05-14T20:42:16.977Z,38.43
2018-05-14T20:44:20.368Z,38.93
2018-05-14T20:46:23.699Z,37.77
2018-05-14T20:48:26.296Z,36.97
2018-05-14T20:50:29.647Z,39.10
2018-05-14T20:52:32.185Z,38.60
2018-05-14T20:54:34.764Z,37.13
2018-05-14T20:56:37.345Z,35.57
2018-05-14T20:58:40.744Z,35.23
2018-05-14T21:00:44.105Z,36.27
2018-05-14T21:02:46.663Z,32.27
2018-05-14T21:04:49.325Z,33.47
2018-05-14T21:06:51.896Z,34.67
2018-05-14T21:08:55.213Z,35.20
2018-05-14T21:10:57.784Z,33.20
2018-05-14T21:13:00.344Z,33.97
2018-05-14T21:15:02.943Z,35.03
2018-05-14T21:17:05.517Z,37.00
2018-05-14T21:19:08.118Z,36.63
2018-05-14T21:21:11.520Z,36.50
2018-05-14T21:23:14.860Z,35.70
2018-05-14T21:25:17.424Z,36.10
2018-05-14T21:27:19.989Z,34.97
2018-05-14T21:29:22.547Z,37.50
2018-05-14T21:31:25.912Z,31.40
2018-05-14T21:33:29.254Z,31.73
2018-05-14T21:35:31.852Z,27.10
2018-05-14T21:37:34.406Z,25.80
2018-05-14T21:39:36.969Z,22.13
2018-05-14T21:41:40.299Z,21.07
2018-05-14T21:43:42.873Z,19.83
2018-05-14T21:45:45.490Z,20.20
2018-05-14T21:47:48.049Z,18.90
2018-05-14T21:49:50.764Z,18.87
2018-05-14T21:51:53.335Z,19.03
2018-05-14T21:53:55.884Z,18.00
2018-05-14T21:55:58.464Z,19.50
2018-05-14T21:58:01.045Z,20.00
2018-05-14T22:00:03.573Z,18.10
2018-05-14T22:02:06.153Z,19.30
2018-05-14T22:04:09.468Z,18.03
2018-05-14T22:06:12.879Z,18.60
2018-05-14T22:08:15.432Z,17.47
2018-05-14T22:10:18.006Z,17.23
2018-05-14T22:12:20.569Z,19.10
2018-05-14T22:14:23.912Z,18.03
2018-05-14T22:16:26.557Z,18.27
2018-05-14T22:18:29.119Z,18.20
2018-05-14T22:20:31.688Z,18.13
2018-05-14T22:22:34.247Z,17.53
2018-05-14T22:24:37.568Z,17.73
2018-05-14T22:26:40.147Z,16.47
2018-05-14T22:28:43.461Z,16.73
2018-05-14T22:30:46.043Z,17.63
2018-05-14T22:32:48.603Z,16.17
2018-05-14T22:34:51.160Z,15.43
2018-05-14T22:36:53.737Z,14.70
2018-05-14T22:38:56.292Z,14.47
2018-05-14T22:40:58.880Z,14.47
2018-05-14T22:43:01.437Z,14.53
2018-05-14T22:45:03.981Z,15.00
2018-05-14T22:47:06.552Z,14.87
2018-05-14T22:49:09.113Z,15.33
2018-05-14T22:51:11.737Z,15.40
2018-05-14T22:53:14.395Z,15.37
2018-05-14T22:55:17.713Z,15.73
2018-05-14T22:57:20.562Z,15.80
2018-05-14T22:59:23.888Z,15.20
2018-05-14T23:01:26.444Z,16.33
2018-05-14T23:03:29.048Z,14.87
2018-05-14T23:05:31.609Z,15.83
2018-05-14T23:07:34.178Z,15.87
2018-05-14T23:09:36.749Z,16.73
2018-05-14T23:11:40.240Z,16.53
2018-05-14T23:13:42.788Z,14.87
2018-05-14T23:15:46.127Z,14.67
2018-05-14T23:17:48.707Z,14.43
2018-05-14T23:19:52.023Z,14.23
2018-05-14T23:21:54.685Z,13.60
2018-05-14T23:23:57.240Z,12.37
2018-05-14T23:25:59.806Z,12.47
2018-05-14T23:28:02.411Z,12.23
2018-05-14T23:30:04.955Z,13.13
2018-05-14T23:32:07.547Z,12.10
2018-05-14T23:34:10.092Z,12.50
2018-05-14T23:36:12.644Z,13.13
2018-05-14T23:38:15.221Z,12.63
2018-05-14T23:40:17.777Z,13.83
2018-05-14T23:42:21.123Z,13.80
2018-05-14T23:44:23.674Z,13.77
2018-05-14T23:46:26.222Z,13.63
2018-05-14T23:48:29.564Z,13.57
2018-05-14T23:50:32.877Z,14.20
2018-05-14T23:52:35.497Z,14.13
2018-05-14T23:54:38.056Z,13.90
2018-05-14T23:56:41.365Z,13.50
2018-05-14T23:58:43.936Z,12.73
